sensor_id;sensor_type;location;lat;lon;timestamp;P1;durP1;ratioP1;P2;durP2;ratioP2
28447;SDS011;15675;52.870;-1.416;2022-07-23T00:02:07;7.22;;;2.10;;
28447;SDS011;15675;52.870;-1.416;2022-07-23T00:04:33;7.10;;;2.50;;
28447;SDS011;15675;52.870;-1.416;2022-07-23T00:06:59;8.40;;;2.25;;
28447;SDS011;15675;52.870;-1.416;2022-07-23T00:09:24;5.30;;;1.60;;
28447;SDS011;15675;52.870;-1.416;2022-07-23T00:11:51;10.95;;;2.50;;
28447;SDS011;15675;52.870;-1.416;2022-07-23T00:14:17;6.72;;;2.42;;
28447;SDS011;15675;52.870;-1.416;2022-07-23T00:16:42;6.55;;;1.90;;
28447;SDS011;15675;52.870;-1.416;2022-07-23T00:19:08;4.53;;;1.90;;
28447;SDS011;15675;52.870;-1.416;2022-07-23T00:21:34;5.28;;;2.03;;
28447;SDS011;15675;52.870;-1.416;2022-07-23T00:23:59;7.03;;;2.05;;
28447;SDS011;15675;52.870;-1.416;2022-07-23T00:26:25;3.00;;;1.92;;
28447;SDS011;15675;52.870;-1.416;2022-07-23T00:28:51;5.25;;;1.88;;
28447;SDS011;15675;52.870;-1.416;2022-07-23T00:31:16;3.80;;;1.77;;
28447;SDS011;15675;52.870;-1.416;2022-07-23T00:33:42;4.45;;;1.77;;
28447;SDS011;15675;52.870;-1.416;2022-07-23T00:36:08;4.10;;;1.90;;
28447;SDS011;15675;52.870;-1.416;2022-07-23T00:38:34;4.63;;;2.10;;
28447;SDS011;15675;52.870;-1.416;2022-07-23T00:40:59;9.07;;;2.20;;
28447;SDS011;15675;52.870;-1.416;2022-07-23T00:43:25;6.53;;;2.42;;
28447;SDS011;15675;52.870;-1.416;2022-07-23T00:45:51;9.20;;;2.53;;
28447;SDS011;15675;52.870;-1.416;2022-07-23T00:48:16;4.28;;;2.25;;
28447;SDS011;15675;52.870;-1.416;2022-07-23T00:50:42;6.30;;;2.22;;
28447;SDS011;15675;52.870;-1.416;2022-07-23T00:53:08;8.48;;;2.00;;
28447;SDS011;15675;52.870;-1.416;2022-07-23T00:55:35;5.22;;;1.92;;
28447;SDS011;15675;52.870;-1.416;2022-07-23T00:58:01;3.97;;;1.90;;
28447;SDS011;15675;52.870;-1.416;2022-07-23T01:00:27;5.20;;;2.20;;
28447;SDS011;15675;52.870;-1.416;2022-07-23T01:02:53;3.67;;;2.00;;
28447;SDS011;15675;52.870;-1.416;2022-07-23T01:05:19;6.60;;;2.05;;
28447;SDS011;15675;52.870;-1.416;2022-07-23T01:07:50;8.02;;;2.22;;
28447;SDS011;15675;52.870;-1.416;2022-07-23T01:10:16;4.72;;;2.00;;
28447;SDS011;15675;52.870;-1.416;2022-07-23T01:13:11;4.22;;;1.80;;
28447;SDS011;15675;52.870;-1.416;2022-07-23T01:15:38;4.75;;;2.55;;
28447;SDS011;15675;52.870;-1.416;2022-07-23T01:18:04;7.00;;;2.05;;
28447;SDS011;15675;52.870;-1.416;2022-07-23T01:20:31;8.80;;;1.85;;
28447;SDS011;15675;52.870;-1.416;2022-07-23T01:22:57;4.82;;;2.17;;
28447;SDS011;15675;52.870;-1.416;2022-07-23T01:25:23;4.82;;;1.88;;
28447;SDS011;15675;52.870;-1.416;2022-07-23T01:27:50;7.43;;;1.92;;
28447;SDS011;15675;52.870;-1.416;2022-07-23T01:30:17;5.10;;;1.58;;
28447;SDS011;15675;52.870;-1.416;2022-07-23T01:32:43;3.20;;;2.03;;
28447;SDS011;15675;52.870;-1.416;2022-07-23T01:35:10;5.22;;;2.13;;
28447;SDS011;15675;52.870;-1.416;2022-07-23T01:37:37;4.85;;;2.13;;
28447;SDS011;15675;52.870;-1.416;2022-07-23T01:40:04;5.82;;;2.00;;
28447;SDS011;15675;52.870;-1.416;2022-07-23T01:42:30;3.70;;;2.38;;
28447;SDS011;15675;52.870;-1.416;2022-07-23T01:44:56;7.63;;;2.30;;
28447;SDS011;15675;52.870;-1.416;2022-07-23T01:47:22;3.67;;;1.80;;
28447;SDS011;15675;52.870;-1.416;2022-07-23T01:49:47;6.63;;;2.22;;
28447;SDS011;15675;52.870;-1.416;2022-07-23T01:52:13;8.48;;;2.30;;
28447;SDS011;15675;52.870;-1.416;2022-07-23T01:54:39;4.18;;;1.65;;
28447;SDS011;15675;52.870;-1.416;2022-07-23T01:57:04;8.77;;;2.42;;
28447;SDS011;15675;52.870;-1.416;2022-07-23T01:59:30;5.13;;;2.30;;
28447;SDS011;15675;52.870;-1.416;2022-07-23T02:01:56;5.82;;;2.15;;
28447;SDS011;15675;52.870;-1.416;2022-07-23T02:04:23;6.68;;;2.45;;
28447;SDS011;15675;52.870;-1.416;2022-07-23T02:06:50;9.25;;;2.72;;
28447;SDS011;15675;52.870;-1.416;2022-07-23T02:09:16;5.38;;;2.50;;
28447;SDS011;15675;52.870;-1.416;2022-07-23T02:11:41;6.20;;;2.45;;
28447;SDS011;15675;52.870;-1.416;2022-07-23T02:14:07;6.10;;;2.47;;
28447;SDS011;15675;52.870;-1.416;2022-07-23T02:16:33;5.85;;;2.90;;
28447;SDS011;15675;52.870;-1.416;2022-07-23T02:19:00;7.40;;;2.88;;
28447;SDS011;15675;52.870;-1.416;2022-07-23T02:21:25;8.10;;;2.97;;
28447;SDS011;15675;52.870;-1.416;2022-07-23T02:23:51;5.97;;;2.72;;
28447;SDS011;15675;52.870;-1.416;2022-07-23T02:26:17;6.97;;;2.80;;
28447;SDS011;15675;52.870;-1.416;2022-07-23T02:28:42;5.78;;;2.83;;
28447;SDS011;15675;52.870;-1.416;2022-07-23T02:31:08;9.13;;;3.03;;
28447;SDS011;15675;52.870;-1.416;2022-07-23T02:33:34;6.85;;;3.15;;
28447;SDS011;15675;52.870;-1.416;2022-07-23T02:35:59;8.55;;;3.38;;
28447;SDS011;15675;52.870;-1.416;2022-07-23T02:38:25;8.90;;;3.00;;
28447;SDS011;15675;52.870;-1.416;2022-07-23T02:40:51;5.82;;;2.97;;
28447;SDS011;15675;52.870;-1.416;2022-07-23T02:43:17;6.63;;;2.85;;
28447;SDS011;15675;52.870;-1.416;2022-07-23T02:45:43;6.80;;;2.95;;
28447;SDS011;15675;52.870;-1.416;2022-07-23T02:48:08;7.45;;;3.65;;
28447;SDS011;15675;52.870;-1.416;2022-07-23T02:50:34;10.30;;;3.28;;
28447;SDS011;15675;52.870;-1.416;2022-07-23T02:53:00;8.30;;;3.63;;
28447;SDS011;15675;52.870;-1.416;2022-07-23T02:55:25;7.00;;;3.67;;
28447;SDS011;15675;52.870;-1.416;2022-07-23T02:57:51;9.82;;;4.38;;
28447;SDS011;15675;52.870;-1.416;2022-07-23T03:00:17;9.27;;;3.50;;
28447;SDS011;15675;52.870;-1.416;2022-07-23T03:02:43;7.00;;;3.60;;
28447;SDS011;15675;52.870;-1.416;2022-07-23T03:05:09;8.50;;;3.90;;
28447;SDS011;15675;52.870;-1.416;2022-07-23T03:07:35;5.13;;;3.10;;
28447;SDS011;15675;52.870;-1.416;2022-07-23T03:10:01;6.05;;;3.70;;
28447;SDS011;15675;52.870;-1.416;2022-07-23T03:12:27;7.18;;;3.72;;
28447;SDS011;15675;52.870;-1.416;2022-07-23T03:14:52;6.90;;;3.50;;
28447;SDS011;15675;52.870;-1.416;2022-07-23T03:17:18;7.45;;;3.50;;
28447;SDS011;15675;52.870;-1.416;2022-07-23T03:19:44;6.90;;;3.83;;
28447;SDS011;15675;52.870;-1.416;2022-07-23T03:22:09;4.75;;;3.33;;
28447;SDS011;15675;52.870;-1.416;2022-07-23T03:24:35;5.53;;;3.20;;
28447;SDS011;15675;52.870;-1.416;2022-07-23T03:27:19;6.65;;;3.78;;
28447;SDS011;15675;52.870;-1.416;2022-07-23T03:29:55;7.00;;;3.83;;
28447;SDS011;15675;52.870;-1.416;2022-07-23T03:32:22;8.90;;;4.43;;
28447;SDS011;15675;52.870;-1.416;2022-07-23T03:34:48;6.25;;;3.75;;
28447;SDS011;15675;52.870;-1.416;2022-07-23T03:37:15;7.43;;;4.43;;
28447;SDS011;15675;52.870;-1.416;2022-07-23T03:39:42;7.18;;;4.50;;
28447;SDS011;15675;52.870;-1.416;2022-07-23T03:42:07;13.52;;;4.90;;
28447;SDS011;15675;52.870;-1.416;2022-07-23T03:44:33;9.77;;;4.75;;
28447;SDS011;15675;52.870;-1.416;2022-07-23T03:46:59;10.00;;;4.53;;
28447;SDS011;15675;52.870;-1.416;2022-07-23T03:49:25;8.80;;;4.35;;
28447;SDS011;15675;52.870;-1.416;2022-07-23T03:51:50;7.70;;;4.47;;
28447;SDS011;15675;52.870;-1.416;2022-07-23T03:54:16;9.75;;;4.80;;
28447;SDS011;15675;52.870;-1.416;2022-07-23T03:56:42;8.13;;;4.40;;
28447;SDS011;15675;52.870;-1.416;2022-07-23T03:59:08;12.25;;;4.78;;
28447;SDS011;15675;52.870;-1.416;2022-07-23T04:01:34;13.40;;;4.63;;
28447;SDS011;15675;52.870;-1.416;2022-07-23T04:04:00;8.07;;;4.50;;
28447;SDS011;15675;52.870;-1.416;2022-07-23T04:06:26;8.20;;;4.15;;
28447;SDS011;15675;52.870;-1.416;2022-07-23T04:08:52;8.38;;;4.35;;
28447;SDS011;15675;52.870;-1.416;2022-07-23T04:11:18;13.20;;;4.90;;
28447;SDS011;15675;52.870;-1.416;2022-07-23T04:13:43;12.10;;;4.60;;
28447;SDS011;15675;52.870;-1.416;2022-07-23T04:16:09;8.27;;;4.65;;
28447;SDS011;15675;52.870;-1.416;2022-07-23T04:18:35;5.85;;;4.00;;
28447;SDS011;15675;52.870;-1.416;2022-07-23T04:21:00;12.75;;;4.45;;
28447;SDS011;15675;52.870;-1.416;2022-07-23T04:23:26;9.05;;;4.53;;
28447;SDS011;15675;52.870;-1.416;2022-07-23T04:25:52;10.15;;;5.13;;
28447;SDS011;15675;52.870;-1.416;2022-07-23T04:28:17;9.88;;;5.38;;
28447;SDS011;15675;52.870;-1.416;2022-07-23T04:30:43;9.57;;;5.03;;
28447;SDS011;15675;52.870;-1.416;2022-07-23T04:33:09;9.43;;;5.22;;
28447;SDS011;15675;52.870;-1.416;2022-07-23T04:35:35;8.45;;;5.40;;
28447;SDS011;15675;52.870;-1.416;2022-07-23T04:38:02;15.52;;;5.68;;
28447;SDS011;15675;52.870;-1.416;2022-07-23T04:40:28;13.55;;;5.25;;
28447;SDS011;15675;52.870;-1.416;2022-07-23T04:42:54;14.05;;;6.40;;
28447;SDS011;15675;52.870;-1.416;2022-07-23T04:45:21;12.35;;;6.75;;
28447;SDS011;15675;52.870;-1.416;2022-07-23T04:47:48;18.63;;;8.30;;
28447;SDS011;15675;52.870;-1.416;2022-07-23T04:50:14;21.70;;;11.43;;
28447;SDS011;15675;52.870;-1.416;2022-07-23T04:52:44;19.35;;;11.65;;
28447;SDS011;15675;52.870;-1.416;2022-07-23T04:55:10;27.33;;;13.85;;
28447;SDS011;15675;52.870;-1.416;2022-07-23T04:57:36;30.90;;;15.82;;
28447;SDS011;15675;52.870;-1.416;2022-07-23T05:00:02;30.85;;;15.88;;
28447;SDS011;15675;52.870;-1.416;2022-07-23T05:02:29;40.10;;;18.58;;
28447;SDS011;15675;52.870;-1.416;2022-07-23T05:04:54;36.03;;;18.58;;
28447;SDS011;15675;52.870;-1.416;2022-07-23T05:07:20;35.17;;;19.10;;
28447;SDS011;15675;52.870;-1.416;2022-07-23T05:09:46;33.35;;;18.17;;
28447;SDS011;15675;52.870;-1.416;2022-07-23T05:12:11;35.67;;;19.63;;
28447;SDS011;15675;52.870;-1.416;2022-07-23T05:14:37;39.38;;;20.98;;
28447;SDS011;15675;52.870;-1.416;2022-07-23T05:17:03;40.25;;;20.63;;
28447;SDS011;15675;52.870;-1.416;2022-07-23T05:19:30;41.72;;;20.83;;
28447;SDS011;15675;52.870;-1.416;2022-07-23T05:21:56;37.58;;;19.63;;
28447;SDS011;15675;52.870;-1.416;2022-07-23T05:24:21;35.97;;;19.60;;
28447;SDS011;15675;52.870;-1.416;2022-07-23T05:26:47;39.22;;;20.80;;
28447;SDS011;15675;52.870;-1.416;2022-07-23T05:29:13;43.40;;;21.17;;
28447;SDS011;15675;52.870;-1.416;2022-07-23T05:31:38;31.90;;;19.27;;
28447;SDS011;15675;52.870;-1.416;2022-07-23T05:34:04;39.45;;;21.15;;
28447;SDS011;15675;52.870;-1.416;2022-07-23T05:36:31;40.80;;;21.48;;
28447;SDS011;15675;52.870;-1.416;2022-07-23T05:38:57;42.22;;;19.80;;
28447;SDS011;15675;52.870;-1.416;2022-07-23T05:41:23;45.85;;;22.65;;
28447;SDS011;15675;52.870;-1.416;2022-07-23T05:43:49;44.90;;;22.10;;
28447;SDS011;15675;52.870;-1.416;2022-07-23T05:46:15;43.60;;;20.48;;
28447;SDS011;15675;52.870;-1.416;2022-07-23T05:48:41;37.70;;;21.60;;
28447;SDS011;15675;52.870;-1.416;2022-07-23T05:51:07;40.65;;;22.15;;
28447;SDS011;15675;52.870;-1.416;2022-07-23T05:53:34;38.40;;;21.35;;
28447;SDS011;15675;52.870;-1.416;2022-07-23T05:56:01;42.47;;;21.55;;
28447;SDS011;15675;52.870;-1.416;2022-07-23T05:58:27;49.15;;;20.88;;
28447;SDS011;15675;52.870;-1.416;2022-07-23T06:00:52;36.58;;;21.27;;
28447;SDS011;15675;52.870;-1.416;2022-07-23T06:03:18;36.83;;;18.38;;
28447;SDS011;15675;52.870;-1.416;2022-07-23T06:05:45;26.58;;;17.00;;
28447;SDS011;15675;52.870;-1.416;2022-07-23T06:08:10;29.88;;;18.58;;
28447;SDS011;15675;52.870;-1.416;2022-07-23T06:10:36;29.02;;;17.55;;
28447;SDS011;15675;52.870;-1.416;2022-07-23T06:13:02;35.22;;;19.77;;
28447;SDS011;15675;52.870;-1.416;2022-07-23T06:15:28;36.17;;;19.58;;
28447;SDS011;15675;52.870;-1.416;2022-07-23T06:17:53;30.52;;;18.40;;
28447;SDS011;15675;52.870;-1.416;2022-07-23T06:20:19;35.17;;;19.38;;
28447;SDS011;15675;52.870;-1.416;2022-07-23T06:22:45;32.42;;;19.48;;
28447;SDS011;15675;52.870;-1.416;2022-07-23T06:25:10;30.83;;;18.75;;
28447;SDS011;15675;52.870;-1.416;2022-07-23T06:27:36;31.88;;;18.40;;
28447;SDS011;15675;52.870;-1.416;2022-07-23T06:30:02;30.55;;;20.00;;
28447;SDS011;15675;52.870;-1.416;2022-07-23T06:32:28;32.25;;;19.75;;
28447;SDS011;15675;52.870;-1.416;2022-07-23T06:34:54;28.83;;;20.17;;
28447;SDS011;15675;52.870;-1.416;2022-07-23T06:37:19;38.50;;;19.70;;
28447;SDS011;15675;52.870;-1.416;2022-07-23T06:39:45;34.72;;;19.95;;
28447;SDS011;15675;52.870;-1.416;2022-07-23T06:42:11;37.10;;;20.77;;
28447;SDS011;15675;52.870;-1.416;2022-07-23T06:44:37;33.97;;;21.52;;
28447;SDS011;15675;52.870;-1.416;2022-07-23T06:47:03;31.67;;;20.70;;
28447;SDS011;15675;52.870;-1.416;2022-07-23T06:49:28;35.65;;;23.38;;
28447;SDS011;15675;52.870;-1.416;2022-07-23T06:51:54;33.20;;;20.92;;
28447;SDS011;15675;52.870;-1.416;2022-07-23T06:54:20;31.88;;;20.40;;
28447;SDS011;15675;52.870;-1.416;2022-07-23T06:56:45;32.80;;;20.88;;
28447;SDS011;15675;52.870;-1.416;2022-07-23T06:59:11;29.50;;;19.77;;
28447;SDS011;15675;52.870;-1.416;2022-07-23T07:01:37;37.53;;;21.58;;
28447;SDS011;15675;52.870;-1.416;2022-07-23T07:04:03;32.83;;;20.48;;
28447;SDS011;15675;52.870;-1.416;2022-07-23T07:06:29;37.97;;;21.90;;
28447;SDS011;15675;52.870;-1.416;2022-07-23T07:08:54;38.53;;;22.42;;
28447;SDS011;15675;52.870;-1.416;2022-07-23T07:11:21;42.67;;;23.05;;
28447;SDS011;15675;52.870;-1.416;2022-07-23T07:13:46;35.33;;;21.55;;
28447;SDS011;15675;52.870;-1.416;2022-07-23T07:16:12;37.92;;;23.27;;
28447;SDS011;15675;52.870;-1.416;2022-07-23T07:18:38;45.05;;;25.08;;
28447;SDS011;15675;52.870;-1.416;2022-07-23T07:21:03;39.40;;;24.38;;
28447;SDS011;15675;52.870;-1.416;2022-07-23T07:23:29;41.03;;;25.13;;
28447;SDS011;15675;52.870;-1.416;2022-07-23T07:25:55;43.13;;;26.48;;
28447;SDS011;15675;52.870;-1.416;2022-07-23T07:28:21;47.47;;;26.27;;
28447;SDS011;15675;52.870;-1.416;2022-07-23T07:30:47;41.90;;;25.63;;
28447;SDS011;15675;52.870;-1.416;2022-07-23T07:33:12;46.42;;;26.67;;
28447;SDS011;15675;52.870;-1.416;2022-07-23T07:35:38;48.88;;;25.70;;
28447;SDS011;15675;52.870;-1.416;2022-07-23T07:38:04;41.88;;;25.85;;
28447;SDS011;15675;52.870;-1.416;2022-07-23T07:40:30;41.20;;;24.98;;
28447;SDS011;15675;52.870;-1.416;2022-07-23T07:42:55;45.65;;;24.88;;
28447;SDS011;15675;52.870;-1.416;2022-07-23T07:45:22;43.03;;;26.42;;
28447;SDS011;15675;52.870;-1.416;2022-07-23T07:47:49;40.45;;;23.83;;
28447;SDS011;15675;52.870;-1.416;2022-07-23T07:50:16;45.67;;;26.55;;
28447;SDS011;15675;52.870;-1.416;2022-07-23T07:52:41;43.92;;;25.83;;
28447;SDS011;15675;52.870;-1.416;2022-07-23T07:55:08;41.53;;;23.75;;
28447;SDS011;15675;52.870;-1.416;2022-07-23T07:57:35;37.83;;;22.38;;
28447;SDS011;15675;52.870;-1.416;2022-07-23T08:00:02;36.33;;;23.40;;
28447;SDS011;15675;52.870;-1.416;2022-07-23T08:02:38;38.60;;;21.50;;
28447;SDS011;15675;52.870;-1.416;2022-07-23T08:05:05;33.00;;;20.98;;
28447;SDS011;15675;52.870;-1.416;2022-07-23T08:07:31;34.72;;;21.02;;
28447;SDS011;15675;52.870;-1.416;2022-07-23T08:09:57;35.20;;;19.38;;
28447;SDS011;15675;52.870;-1.416;2022-07-23T08:12:22;34.97;;;20.50;;
28447;SDS011;15675;52.870;-1.416;2022-07-23T08:14:48;37.05;;;21.15;;
28447;SDS011;15675;52.870;-1.416;2022-07-23T08:17:14;31.73;;;20.50;;
28447;SDS011;15675;52.870;-1.416;2022-07-23T08:19:39;43.95;;;20.60;;
28447;SDS011;15675;52.870;-1.416;2022-07-23T08:22:05;35.17;;;20.48;;
28447;SDS011;15675;52.870;-1.416;2022-07-23T08:24:31;34.83;;;18.65;;
28447;SDS011;15675;52.870;-1.416;2022-07-23T08:26:57;30.40;;;19.17;;
28447;SDS011;15675;52.870;-1.416;2022-07-23T08:29:22;27.88;;;17.17;;
28447;SDS011;15675;52.870;-1.416;2022-07-23T08:31:48;39.28;;;18.02;;
28447;SDS011;15675;52.870;-1.416;2022-07-23T08:34:13;25.98;;;17.10;;
28447;SDS011;15675;52.870;-1.416;2022-07-23T08:36:39;24.90;;;15.02;;
28447;SDS011;15675;52.870;-1.416;2022-07-23T08:39:05;20.02;;;14.75;;
28447;SDS011;15675;52.870;-1.416;2022-07-23T08:41:30;28.92;;;14.63;;
28447;SDS011;15675;52.870;-1.416;2022-07-23T08:43:57;46.90;;;15.15;;
28447;SDS011;15675;52.870;-1.416;2022-07-23T08:46:26;32.20;;;15.10;;
28447;SDS011;15675;52.870;-1.416;2022-07-23T08:48:52;20.17;;;13.23;;
28447;SDS011;15675;52.870;-1.416;2022-07-23T08:51:19;19.10;;;11.65;;
28447;SDS011;15675;52.870;-1.416;2022-07-23T08:53:46;18.35;;;10.85;;
28447;SDS011;15675;52.870;-1.416;2022-07-23T08:56:12;30.77;;;9.20;;
28447;SDS011;15675;52.870;-1.416;2022-07-23T08:58:38;23.27;;;7.03;;
28447;SDS011;15675;52.870;-1.416;2022-07-23T09:01:03;13.00;;;6.50;;
28447;SDS011;15675;52.870;-1.416;2022-07-23T09:03:30;12.93;;;6.07;;
28447;SDS011;15675;52.870;-1.416;2022-07-23T09:05:57;10.13;;;6.13;;
28447;SDS011;15675;52.870;-1.416;2022-07-23T09:08:25;11.43;;;5.90;;
28447;SDS011;15675;52.870;-1.416;2022-07-23T09:10:59;17.00;;;6.68;;
28447;SDS011;15675;52.870;-1.416;2022-07-23T09:13:31;13.73;;;6.90;;
28447;SDS011;15675;52.870;-1.416;2022-07-23T09:16:03;8.43;;;5.32;;
28447;SDS011;15675;52.870;-1.416;2022-07-23T09:21:07;20.25;;;5.55;;
28447;SDS011;15675;52.870;-1.416;2022-07-23T09:24:16;13.43;;;5.30;;
28447;SDS011;15675;52.870;-1.416;2022-07-23T09:28:56;9.35;;;3.55;;
28447;SDS011;15675;52.870;-1.416;2022-07-23T09:31:35;9.30;;;3.60;;
28447;SDS011;15675;52.870;-1.416;2022-07-23T09:34:12;7.88;;;3.67;;
28447;SDS011;15675;52.870;-1.416;2022-07-23T09:37:18;8.35;;;3.83;;
28447;SDS011;15675;52.870;-1.416;2022-07-23T09:39:46;8.10;;;3.40;;
28447;SDS011;15675;52.870;-1.416;2022-07-23T09:42:19;6.60;;;2.75;;
28447;SDS011;15675;52.870;-1.416;2022-07-23T09:44:51;7.82;;;2.50;;
28447;SDS011;15675;52.870;-1.416;2022-07-23T09:47:19;5.45;;;2.63;;
28447;SDS011;15675;52.870;-1.416;2022-07-23T09:50:00;7.25;;;3.58;;
28447;SDS011;15675;52.870;-1.416;2022-07-23T09:52:30;4.05;;;2.63;;
28447;SDS011;15675;52.870;-1.416;2022-07-23T09:54:59;5.85;;;2.67;;
28447;SDS011;15675;52.870;-1.416;2022-07-23T09:57:26;4.85;;;2.70;;
28447;SDS011;15675;52.870;-1.416;2022-07-23T09:59:53;6.38;;;2.70;;
28447;SDS011;15675;52.870;-1.416;2022-07-23T10:02:25;8.88;;;2.78;;
28447;SDS011;15675;52.870;-1.416;2022-07-23T10:04:53;12.70;;;3.33;;
28447;SDS011;15675;52.870;-1.416;2022-07-23T10:07:22;8.80;;;2.55;;
28447;SDS011;15675;52.870;-1.416;2022-07-23T10:09:48;7.30;;;2.85;;
28447;SDS011;15675;52.870;-1.416;2022-07-23T10:12:17;7.93;;;4.03;;
28447;SDS011;15675;52.870;-1.416;2022-07-23T10:14:53;7.45;;;3.33;;
28447;SDS011;15675;52.870;-1.416;2022-07-23T10:17:19;7.30;;;3.45;;
28447;SDS011;15675;52.870;-1.416;2022-07-23T10:19:45;7.10;;;2.70;;
28447;SDS011;15675;52.870;-1.416;2022-07-23T10:24:47;7.03;;;4.25;;
28447;SDS011;15675;52.870;-1.416;2022-07-23T10:27:26;6.78;;;2.53;;
28447;SDS011;15675;52.870;-1.416;2022-07-23T10:29:58;7.43;;;3.13;;
28447;SDS011;15675;52.870;-1.416;2022-07-23T10:38:21;6.63;;;2.35;;
28447;SDS011;15675;52.870;-1.416;2022-07-23T10:41:01;7.78;;;3.20;;
28447;SDS011;15675;52.870;-1.416;2022-07-23T10:43:29;6.28;;;2.22;;
28447;SDS011;15675;52.870;-1.416;2022-07-23T10:45:55;3.80;;;2.38;;
28447;SDS011;15675;52.870;-1.416;2022-07-23T10:48:41;5.00;;;2.50;;
28447;SDS011;15675;52.870;-1.416;2022-07-23T10:59:16;4.82;;;2.05;;
28447;SDS011;15675;52.870;-1.416;2022-07-23T11:01:42;6.88;;;1.70;;
28447;SDS011;15675;52.870;-1.416;2022-07-23T11:04:07;7.30;;;2.22;;
28447;SDS011;15675;52.870;-1.416;2022-07-23T11:09:25;3.30;;;1.60;;
28447;SDS011;15675;52.870;-1.416;2022-07-23T11:17:29;4.10;;;1.48;;
28447;SDS011;15675;52.870;-1.416;2022-07-23T11:22:52;4.70;;;1.70;;
28447;SDS011;15675;52.870;-1.416;2022-07-23T11:27:47;2.92;;;1.52;;
28447;SDS011;15675;52.870;-1.416;2022-07-23T11:33:15;2.65;;;1.17;;
28447;SDS011;15675;52.870;-1.416;2022-07-23T11:35:42;2.83;;;1.45;;
28447;SDS011;15675;52.870;-1.416;2022-07-23T11:38:14;4.15;;;1.15;;
28447;SDS011;15675;52.870;-1.416;2022-07-23T11:40:46;6.18;;;1.67;;
28447;SDS011;15675;52.870;-1.416;2022-07-23T11:43:20;3.40;;;1.40;;
28447;SDS011;15675;52.870;-1.416;2022-07-23T11:45:47;2.55;;;1.30;;
28447;SDS011;15675;52.870;-1.416;2022-07-23T11:48:21;12.93;;;1.90;;
28447;SDS011;15675;52.870;-1.416;2022-07-23T11:50:56;3.75;;;1.55;;
28447;SDS011;15675;52.870;-1.416;2022-07-23T11:55:48;5.43;;;1.38;;
28447;SDS011;15675;52.870;-1.416;2022-07-23T11:58:14;3.53;;;1.40;;
28447;SDS011;15675;52.870;-1.416;2022-07-23T12:00:40;4.22;;;1.42;;
28447;SDS011;15675;52.870;-1.416;2022-07-23T12:03:06;3.95;;;1.90;;
28447;SDS011;15675;52.870;-1.416;2022-07-23T12:05:34;5.20;;;1.63;;
28447;SDS011;15675;52.870;-1.416;2022-07-23T12:08:05;4.72;;;1.50;;
28447;SDS011;15675;52.870;-1.416;2022-07-23T12:10:34;3.13;;;1.35;;
28447;SDS011;15675;52.870;-1.416;2022-07-23T12:13:03;6.38;;;1.38;;
28447;SDS011;15675;52.870;-1.416;2022-07-23T12:15:41;5.57;;;1.75;;
28447;SDS011;15675;52.870;-1.416;2022-07-23T12:18:11;2.20;;;1.45;;
28447;SDS011;15675;52.870;-1.416;2022-07-23T12:20:39;3.38;;;1.48;;
28447;SDS011;15675;52.870;-1.416;2022-07-23T12:23:08;2.67;;;1.65;;
28447;SDS011;15675;52.870;-1.416;2022-07-23T12:25:41;6.90;;;1.60;;
28447;SDS011;15675;52.870;-1.416;2022-07-23T12:30:38;3.60;;;1.70;;
28447;SDS011;15675;52.870;-1.416;2022-07-23T12:33:07;4.50;;;1.70;;
28447;SDS011;15675;52.870;-1.416;2022-07-23T12:38:07;5.60;;;1.77;;
28447;SDS011;15675;52.870;-1.416;2022-07-23T12:43:11;4.75;;;1.77;;
28447;SDS011;15675;52.870;-1.416;2022-07-23T12:48:37;6.40;;;1.40;;
28447;SDS011;15675;52.870;-1.416;2022-07-23T12:51:06;3.30;;;1.70;;
28447;SDS011;15675;52.870;-1.416;2022-07-23T12:53:44;4.22;;;1.73;;
28447;SDS011;15675;52.870;-1.416;2022-07-23T12:56:14;3.75;;;1.60;;
28447;SDS011;15675;52.870;-1.416;2022-07-23T12:58:45;3.28;;;1.42;;
28447;SDS011;15675;52.870;-1.416;2022-07-23T13:03:55;3.15;;;1.98;;
28447;SDS011;15675;52.870;-1.416;2022-07-23T13:06:20;4.65;;;1.85;;
28447;SDS011;15675;52.870;-1.416;2022-07-23T13:08:46;4.72;;;1.73;;
28447;SDS011;15675;52.870;-1.416;2022-07-23T13:11:12;8.30;;;1.80;;
28447;SDS011;15675;52.870;-1.416;2022-07-23T13:13:38;4.93;;;2.03;;
28447;SDS011;15675;52.870;-1.416;2022-07-23T13:16:03;2.72;;;1.90;;
28447;SDS011;15675;52.870;-1.416;2022-07-23T13:18:29;6.28;;;1.98;;
28447;SDS011;15675;52.870;-1.416;2022-07-23T13:20:56;3.60;;;1.80;;
28447;SDS011;15675;52.870;-1.416;2022-07-23T13:23:22;2.85;;;1.40;;
28447;SDS011;15675;52.870;-1.416;2022-07-23T13:25:48;5.13;;;1.90;;
28447;SDS011;15675;52.870;-1.416;2022-07-23T13:28:15;3.33;;;1.92;;
28447;SDS011;15675;52.870;-1.416;2022-07-23T13:30:42;2.58;;;1.60;;
28447;SDS011;15675;52.870;-1.416;2022-07-23T13:33:08;2.85;;;1.73;;
28447;SDS011;15675;52.870;-1.416;2022-07-23T13:35:35;2.55;;;1.45;;
28447;SDS011;15675;52.870;-1.416;2022-07-23T13:38:01;3.25;;;1.73;;
28447;SDS011;15675;52.870;-1.416;2022-07-23T13:40:28;2.85;;;1.90;;
28447;SDS011;15675;52.870;-1.416;2022-07-23T13:42:54;2.88;;;1.50;;
28447;SDS011;15675;52.870;-1.416;2022-07-23T13:45:20;3.28;;;1.70;;
28447;SDS011;15675;52.870;-1.416;2022-07-23T13:47:46;3.40;;;1.73;;
28447;SDS011;15675;52.870;-1.416;2022-07-23T13:50:11;3.65;;;1.90;;
28447;SDS011;15675;52.870;-1.416;2022-07-23T13:52:37;4.40;;;2.03;;
28447;SDS011;15675;52.870;-1.416;2022-07-23T13:55:04;3.83;;;1.92;;
28447;SDS011;15675;52.870;-1.416;2022-07-23T13:57:31;5.68;;;2.25;;
28447;SDS011;15675;52.870;-1.416;2022-07-23T13:59:57;4.32;;;2.15;;
28447;SDS011;15675;52.870;-1.416;2022-07-23T14:02:23;3.88;;;2.17;;
28447;SDS011;15675;52.870;-1.416;2022-07-23T14:04:49;4.13;;;2.10;;
28447;SDS011;15675;52.870;-1.416;2022-07-23T14:07:15;7.38;;;2.20;;
28447;SDS011;15675;52.870;-1.416;2022-07-23T14:09:42;3.70;;;2.40;;
28447;SDS011;15675;52.870;-1.416;2022-07-23T14:12:07;2.83;;;1.90;;
28447;SDS011;15675;52.870;-1.416;2022-07-23T14:14:34;6.28;;;2.20;;
28447;SDS011;15675;52.870;-1.416;2022-07-23T14:17:00;5.63;;;1.70;;
28447;SDS011;15675;52.870;-1.416;2022-07-23T14:19:26;3.22;;;1.52;;
28447;SDS011;15675;52.870;-1.416;2022-07-23T14:21:52;2.38;;;1.45;;
28447;SDS011;15675;52.870;-1.416;2022-07-23T14:24:17;3.92;;;1.77;;
28447;SDS011;15675;52.870;-1.416;2022-07-23T14:26:43;2.53;;;1.48;;
28447;SDS011;15675;52.870;-1.416;2022-07-23T14:29:09;3.22;;;1.50;;
28447;SDS011;15675;52.870;-1.416;2022-07-23T14:31:34;2.55;;;1.73;;
28447;SDS011;15675;52.870;-1.416;2022-07-23T14:34:00;3.47;;;1.55;;
28447;SDS011;15675;52.870;-1.416;2022-07-23T14:36:26;3.28;;;1.70;;
28447;SDS011;15675;52.870;-1.416;2022-07-23T14:38:52;3.33;;;1.58;;
28447;SDS011;15675;52.870;-1.416;2022-07-23T14:41:18;3.40;;;1.90;;
28447;SDS011;15675;52.870;-1.416;2022-07-23T14:43:44;3.50;;;1.67;;
28447;SDS011;15675;52.870;-1.416;2022-07-23T14:46:10;4.50;;;2.13;;
28447;SDS011;15675;52.870;-1.416;2022-07-23T14:48:37;4.35;;;2.15;;
28447;SDS011;15675;52.870;-1.416;2022-07-23T14:51:03;3.95;;;2.35;;
28447;SDS011;15675;52.870;-1.416;2022-07-23T14:53:29;5.63;;;2.38;;
28447;SDS011;15675;52.870;-1.416;2022-07-23T14:55:55;5.80;;;2.22;;
28447;SDS011;15675;52.870;-1.416;2022-07-23T14:58:25;2.88;;;1.98;;
28447;SDS011;15675;52.870;-1.416;2022-07-23T15:00:51;3.05;;;2.33;;
28447;SDS011;15675;52.870;-1.416;2022-07-23T15:03:17;5.30;;;2.13;;
28447;SDS011;15675;52.870;-1.416;2022-07-23T15:05:43;4.13;;;2.10;;
28447;SDS011;15675;52.870;-1.416;2022-07-23T15:08:09;7.10;;;1.85;;
28447;SDS011;15675;52.870;-1.416;2022-07-23T15:10:34;3.17;;;1.98;;
28447;SDS011;15675;52.870;-1.416;2022-07-23T15:13:00;4.38;;;2.20;;
28447;SDS011;15675;52.870;-1.416;2022-07-23T15:15:26;4.78;;;2.30;;
28447;SDS011;15675;52.870;-1.416;2022-07-23T15:17:52;5.47;;;2.30;;
28447;SDS011;15675;52.870;-1.416;2022-07-23T15:20:17;3.97;;;2.45;;